createdAt,value
2023-03-30T00:03:28.760Z,100
2023-03-30T00:22:49.984Z,100
2023-03-30T00:42:11.327Z,100
2023-03-30T01:01:34.703Z,100
2023-03-30T01:20:55.729Z,100
2023-03-30T01:40:17.472Z,100
2023-03-30T01:59:43.704Z,92.6
2023-03-30T02:19:09.523Z,87.2
2023-03-30T02:38:34.828Z,82.3
2023-03-30T02:57:57.399Z,79.7
2023-03-30T03:17:22.816Z,78.3
2023-03-30T03:36:46.038Z,78.7
2023-03-30T03:56:09.937Z,80
2023-03-30T04:15:32.495Z,82.5
2023-03-30T04:34:54.848Z,86.1
2023-03-30T04:54:17.818Z,86.3
2023-03-30T05:13:42.000Z,86
2023-03-30T05:33:03.641Z,86.8
2023-03-30T05:52:25.317Z,86.7
2023-03-30T06:11:45.739Z,85.9
2023-03-30T06:31:08.617Z,85.7
2023-03-30T06:50:31.283Z,86.2
2023-03-30T07:09:54.569Z,85.2
2023-03-30T07:29:15.830Z,85.2
2023-03-30T07:48:40.229Z,81.9
2023-03-30T08:08:08.524Z,77
2023-03-30T08:27:30.549Z,77.6
2023-03-30T08:46:51.356Z,78.4
2023-03-30T09:06:09.352Z,93.4
2023-03-30T09:25:32.166Z,88.7
2023-03-30T09:44:55.543Z,78.2
2023-03-30T10:04:13.250Z,87.7
2023-03-30T10:23:30.169Z,100
2023-03-30T10:42:49.509Z,100
2023-03-30T11:02:14.029Z,100
2023-03-30T11:21:35.707Z,99
2023-03-30T11:41:01.383Z,93.8
2023-03-30T12:00:24.896Z,90.5
2023-03-30T12:19:57.125Z,88.4
2023-03-30T12:39:16.683Z,84.6
2023-03-30T12:58:40.027Z,75.9
2023-03-30T13:18:04.373Z,74.6
2023-03-30T13:37:26.751Z,79.3
2023-03-30T13:56:48.982Z,87.3
2023-03-30T14:16:09.831Z,90.4
2023-03-30T14:35:27.024Z,100
2023-03-30T14:55:08.193Z,95.2
2023-03-30T15:14:25.368Z,89.1
2023-03-30T15:33:50.000Z,87.4
2023-03-30T15:53:14.153Z,85.1
2023-03-30T16:12:36.088Z,83.1
2023-03-30T16:31:59.472Z,81
2023-03-30T16:51:21.761Z,74.7
2023-03-30T17:10:38.294Z,77
2023-03-30T17:29:59.175Z,79.1
2023-03-30T17:49:26.179Z,75.5
2023-03-30T18:08:49.538Z,73.4
2023-03-30T18:28:10.296Z,75.7
2023-03-30T18:47:32.336Z,76.7
2023-03-30T19:06:53.729Z,78.2
2023-03-30T19:26:16.380Z,80.1
2023-03-30T19:45:38.662Z,83.1
2023-03-30T20:04:59.827Z,83.8
2023-03-30T20:24:22.425Z,85.6
2023-03-30T20:43:57.480Z,88.6
2023-03-30T21:03:10.395Z,95.1
2023-03-30T21:22:32.225Z,96.6
2023-03-30T21:41:55.196Z,96.6
2023-03-30T22:01:17.676Z,96.1
2023-03-30T22:20:38.320Z,96.2
2023-03-30T22:40:01.724Z,96.9
2023-03-30T22:59:23.942Z,95.9
2023-03-30T23:18:45.006Z,94.6
2023-03-30T23:38:08.374Z,95.1
2023-03-30T23:57:29.512Z,95.5
